Time;durP1;ratioP1;P1;durP2;ratioP2;P2;SDS_P1;SDS_P2;PMS_P1;PMS_P2;Temp;Humidity;BMP_temperature;BMP_pressure;BME280_temperature;BME280_humidity;BME280_pressure;Samples;Min_cycle;Max_cycle;Signal;HPM_P1;HPM_P2
2024/03/13 00:01:33;;;;;;;1.48;1.48;;;9.40;99.90;;;;;;5042990;28;20219;-76
2024/03/13 00:04:01;;;;;;;1.55;1.55;;;9.40;99.90;;;;;;5038539;28;20879;-75
2024/03/13 00:06:29;;;;;;;1.63;1.52;;;9.40;99.90;;;;;;5042117;28;20226;-76
2024/03/13 00:08:56;;;;;;;1.25;1.25;;;9.40;99.90;;;;;;5043317;28;20309;-78
2024/03/13 00:11:25;;;;;;;1.60;1.50;;;9.30;99.90;;;;;;5042477;28;20693;-76
2024/03/13 00:13:55;;;;;;;1.40;1.40;;;9.30;99.90;;;;;;5040299;28;20231;-76
2024/03/13 00:16:22;;;;;;;1.45;1.45;;;9.30;99.90;;;;;;5040764;28;20276;-77
2024/03/13 00:18:49;;;;;;;1.40;1.40;;;9.30;99.90;;;;;;5039743;28;20303;-76
2024/03/13 00:21:17;;;;;;;1.70;1.60;;;9.30;99.90;;;;;;5038732;28;20304;-77
2024/03/13 00:23:44;;;;;;;1.63;1.52;;;9.20;99.90;;;;;;5038230;28;20199;-76
2024/03/13 00:26:12;;;;;;;1.45;1.45;;;9.20;99.90;;;;;;5039776;28;20287;-75
2024/03/13 00:28:40;;;;;;;1.42;1.42;;;9.10;99.90;;;;;;5040385;28;20234;-75
2024/03/13 00:31:08;;;;;;;1.67;1.42;;;9.10;99.90;;;;;;5038700;28;20249;-76
2024/03/13 00:33:36;;;;;;;1.55;1.55;;;9.10;99.90;;;;;;5041642;28;20199;-76
2024/03/13 00:36:04;;;;;;;5.00;1.60;;;9.10;99.90;;;;;;5039703;28;20640;-77
2024/03/13 00:38:33;;;;;;;1.30;1.30;;;9.00;99.90;;;;;;5045434;28;20195;-77
2024/03/13 00:41:00;;;;;;;1.58;1.48;;;9.10;99.90;;;;;;5042350;28;20230;-75
2024/03/13 00:43:27;;;;;;;1.60;1.58;;;9.10;99.90;;;;;;5037611;28;20325;-76
2024/03/13 00:45:54;;;;;;;1.90;1.80;;;9.00;99.90;;;;;;5040096;28;20592;-75
2024/03/13 00:48:21;;;;;;;1.50;1.50;;;9.10;99.90;;;;;;5041944;28;20758;-76
2024/03/13 00:50:49;;;;;;;1.50;1.45;;;9.00;99.90;;;;;;5042143;28;20322;-75
2024/03/13 00:53:16;;;;;;;1.35;1.35;;;9.00;99.90;;;;;;5039211;28;20250;-75
2024/03/13 00:55:44;;;;;;;1.70;1.60;;;9.00;99.90;;;;;;5039304;28;20284;-75
2024/03/13 00:58:11;;;;;;;1.48;1.42;;;9.00;99.90;;;;;;5039073;28;20272;-76
2024/03/13 01:00:38;;;;;;;1.45;1.45;;;9.00;99.90;;;;;;5041151;28;20238;-75
2024/03/13 01:03:06;;;;;;;1.13;1.13;;;9.10;99.90;;;;;;5036806;28;20795;-75
2024/03/13 01:05:32;;;;;;;1.42;1.42;;;9.10;99.90;;;;;;5040237;28;20250;-75
2024/03/13 01:07:59;;;;;;;1.45;1.45;;;9.10;99.90;;;;;;5041455;28;20215;-76
2024/03/13 01:10:27;;;;;;;1.50;1.50;;;9.10;99.90;;;;;;5041163;28;20254;-75
2024/03/13 01:12:55;;;;;;;1.48;1.48;;;9.10;99.90;;;;;;5040962;28;20246;-76
2024/03/13 01:15:22;;;;;;;1.33;1.33;;;9.10;99.90;;;;;;5043220;28;20788;-75
2024/03/13 01:17:49;;;;;;;1.88;1.77;;;9.10;99.90;;;;;;5043266;28;20263;-76
2024/03/13 01:20:18;;;;;;;1.75;1.63;;;9.10;99.90;;;;;;5039926;28;20272;-76
2024/03/13 01:22:47;;;;;;;1.42;1.42;;;9.10;99.90;;;;;;5038723;28;20313;-76
2024/03/13 01:25:14;;;;;;;1.50;1.50;;;9.10;99.90;;;;;;5040084;28;20230;-76
2024/03/13 01:27:42;;;;;;;1.70;1.60;;;9.10;99.90;;;;;;5038559;28;20287;-76
2024/03/13 01:30:13;;;;;;;1.52;1.52;;;9.10;99.90;;;;;;5039627;28;20760;-77
2024/03/13 01:32:43;;;;;;;1.40;1.40;;;9.00;99.90;;;;;;5042353;28;20312;-76
2024/03/13 01:35:10;;;;;;;1.70;1.63;;;9.10;99.90;;;;;;5039127;28;20222;-75
2024/03/13 01:40:25;;;;;;;1.60;1.60;;;9.00;99.90;;;;;;5040580;28;20271;-76
2024/03/13 01:54:54;;;;;;;1.42;1.42;;;8.90;99.90;;;;;;5039184;28;20236;-76
2024/03/13 01:57:31;;;;;;;1.50;1.50;;;8.90;99.90;;;;;;5037279;28;20221;-76
2024/03/13 02:02:46;;;;;;;1.60;1.60;;;8.90;99.90;;;;;;5037053;28;20221;-75
2024/03/13 02:05:15;;;;;;;1.50;1.50;;;8.90;99.90;;;;;;5040930;28;20841;-75
2024/03/13 02:07:43;;;;;;;1.67;1.67;;;8.90;99.90;;;;;;5039962;28;20223;-75
2024/03/13 02:10:10;;;;;;;1.60;1.50;;;8.90;99.90;;;;;;5035030;28;20304;-75
2024/03/13 02:12:37;;;;;;;1.60;1.60;;;8.80;99.90;;;;;;5039822;28;20262;-75
2024/03/13 02:15:05;;;;;;;1.45;1.45;;;8.80;99.90;;;;;;5042478;28;20253;-75
2024/03/13 02:17:37;;;;;;;1.60;1.50;;;8.80;99.90;;;;;;5039152;28;20226;-76
2024/03/13 02:20:07;;;;;;;1.85;1.75;;;8.80;99.90;;;;;;5040225;28;20225;-76
2024/03/13 02:22:38;;;;;;;1.60;1.50;;;8.80;99.90;;;;;;5042455;28;20218;-76
2024/03/13 02:25:05;;;;;;;1.40;1.40;;;8.70;99.90;;;;;;5039859;28;20950;-76
2024/03/13 02:27:33;;;;;;;1.55;1.55;;;8.80;99.90;;;;;;5033277;28;20231;-76
2024/03/13 02:30:00;;;;;;;1.77;1.70;;;8.80;99.90;;;;;;5019895;28;20717;-77
2024/03/13 02:32:27;;;;;;;1.70;1.60;;;8.80;99.90;;;;;;5021107;28;20242;-75
2024/03/13 02:34:56;;;;;;;1.40;1.40;;;8.80;99.90;;;;;;5024559;28;20328;-75
2024/03/13 02:37:23;;;;;;;1.52;1.52;;;8.80;99.90;;;;;;5033467;28;20614;-76
2024/03/13 02:39:50;;;;;;;1.98;1.88;;;8.70;99.90;;;;;;5026983;28;20218;-75
2024/03/13 02:42:17;;;;;;;1.42;1.40;;;8.70;99.90;;;;;;5024308;28;21108;-77
2024/03/13 02:44:44;;;;;;;1.52;1.52;;;8.70;99.90;;;;;;5041328;28;20222;-76
2024/03/13 02:47:12;;;;;;;1.75;1.73;;;8.70;99.90;;;;;;5040385;28;20308;-76
2024/03/13 02:49:39;;;;;;;1.70;1.70;;;8.70;99.90;;;;;;5026683;28;20313;-76
2024/03/13 02:52:06;;;;;;;1.65;1.55;;;8.70;99.90;;;;;;5025652;28;20242;-75
2024/03/13 02:54:33;;;;;;;1.75;1.70;;;8.80;99.90;;;;;;5027182;28;20238;-75
2024/03/13 02:57:00;;;;;;;1.52;1.52;;;8.70;99.90;;;;;;5059257;28;20213;-75
2024/03/13 02:59:27;;;;;;;1.52;1.52;;;8.80;99.90;;;;;;5041304;28;20224;-76
2024/03/13 03:01:54;;;;;;;1.38;1.38;;;8.80;99.90;;;;;;5021664;28;20231;-75
2024/03/13 03:04:21;;;;;;;1.30;1.30;;;8.80;99.90;;;;;;5039420;28;20250;-76
2024/03/13 03:06:48;;;;;;;2.03;1.92;;;8.80;99.90;;;;;;5022953;28;20223;-76
2024/03/13 03:09:15;;;;;;;1.48;1.42;;;8.70;99.90;;;;;;5026076;28;20335;-75
2024/03/13 03:11:44;;;;;;;1.30;1.30;;;8.70;99.90;;;;;;5024879;28;20304;-76
2024/03/13 03:14:12;;;;;;;1.77;1.67;;;8.70;99.90;;;;;;5028782;28;20254;-76
2024/03/13 03:16:39;;;;;;;1.70;1.65;;;8.70;99.90;;;;;;5026044;28;20814;-75
2024/03/13 03:19:06;;;;;;;1.55;1.55;;;8.70;99.90;;;;;;5040885;28;20258;-76
2024/03/13 03:21:34;;;;;;;1.50;1.50;;;8.70;99.90;;;;;;5024332;28;20231;-75
2024/03/13 03:24:01;;;;;;;1.40;1.40;;;8.60;99.90;;;;;;5043197;28;20732;-75
2024/03/13 03:26:28;;;;;;;1.60;1.50;;;8.60;99.90;;;;;;5024878;28;20272;-77
2024/03/13 03:28:56;;;;;;;1.58;1.58;;;8.60;99.90;;;;;;5025878;28;20237;-75
2024/03/13 03:31:24;;;;;;;1.23;1.23;;;8.60;99.90;;;;;;5024664;28;20234;-76
2024/03/13 03:33:51;;;;;;;1.75;1.65;;;8.60;99.90;;;;;;5038903;28;20292;-76
2024/03/13 03:36:19;;;;;;;1.75;1.70;;;8.60;99.90;;;;;;5032417;28;20425;-76
2024/03/13 03:38:47;;;;;;;1.65;1.60;;;8.60;99.90;;;;;;5026536;28;20698;-74
2024/03/13 03:41:14;;;;;;;1.42;1.35;;;8.60;99.90;;;;;;5025242;28;20223;-75
2024/03/13 03:43:41;;;;;;;1.60;1.60;;;8.70;99.90;;;;;;5040083;28;20285;-77
2024/03/13 03:46:08;;;;;;;1.50;1.50;;;8.70;99.90;;;;;;5055945;28;20246;-75
2024/03/13 03:48:35;;;;;;;1.48;1.48;;;8.60;99.90;;;;;;5027320;28;20223;-76
2024/03/13 03:51:02;;;;;;;1.88;1.85;;;8.60;99.90;;;;;;5041672;28;20218;-75
2024/03/13 03:53:28;;;;;;;1.60;1.55;;;8.60;99.90;;;;;;5038911;28;20253;-77
2024/03/13 03:55:55;;;;;;;1.88;1.77;;;8.60;99.90;;;;;;5041324;28;20222;-76
2024/03/13 03:58:22;;;;;;;1.63;1.63;;;8.60;99.90;;;;;;5041153;28;20238;-75
2024/03/13 04:00:49;;;;;;;1.77;1.67;;;8.60;99.90;;;;;;5026083;28;20644;-75
2024/03/13 04:03:18;;;;;;;1.40;1.40;;;8.60;99.90;;;;;;5019850;28;20250;-76
2024/03/13 04:05:46;;;;;;;1.80;1.70;;;8.60;99.90;;;;;;5054570;28;20931;-75
2024/03/13 04:08:14;;;;;;;1.70;1.70;;;8.60;99.90;;;;;;5051744;28;20595;-76
2024/03/13 04:10:42;;;;;;;1.30;1.30;;;8.50;99.90;;;;;;5043274;28;20774;-76
2024/03/13 04:13:10;;;;;;;1.80;1.70;;;8.50;99.90;;;;;;5026771;28;20756;-75
2024/03/13 04:15:37;;;;;;;1.70;1.70;;;8.50;99.90;;;;;;5022110;28;20761;-75
2024/03/13 04:18:05;;;;;;;1.85;1.77;;;8.40;99.90;;;;;;5029095;28;20273;-76
2024/03/13 04:20:32;;;;;;;1.35;1.35;;;8.40;99.90;;;;;;5024480;28;20225;-76
2024/03/13 04:22:59;;;;;;;2.13;1.92;;;8.40;99.90;;;;;;5018998;28;20635;-76
2024/03/13 04:25:26;;;;;;;1.70;1.60;;;8.40;99.90;;;;;;5021999;28;20215;-76
2024/03/13 04:27:55;;;;;;;1.90;1.80;;;8.40;99.90;;;;;;5023510;28;20311;-77
2024/03/13 04:30:23;;;;;;;1.60;1.60;;;8.30;99.90;;;;;;5054262;28;20219;-76
2024/03/13 04:32:50;;;;;;;1.83;1.73;;;8.30;99.90;;;;;;5024608;28;20293;-75
2024/03/13 04:35:19;;;;;;;1.95;1.85;;;8.30;99.90;;;;;;5045282;28;20219;-76
2024/03/13 04:37:46;;;;;;;1.75;1.70;;;8.30;99.90;;;;;;5024132;28;20226;-76
2024/03/13 04:40:14;;;;;;;2.05;1.95;;;8.30;99.90;;;;;;5037949;28;20296;-76
2024/03/13 04:42:41;;;;;;;1.90;1.80;;;8.30;99.90;;;;;;5023624;28;20268;-76
2024/03/13 04:45:07;;;;;;;1.90;1.80;;;8.30;99.90;;;;;;5039710;28;20242;-75
2024/03/13 04:47:35;;;;;;;1.63;1.60;;;8.30;99.90;;;;;;5023717;28;20222;-75
2024/03/13 04:50:02;;;;;;;1.80;1.70;;;8.30;99.90;;;;;;5022268;28;20264;-75
2024/03/13 04:52:29;;;;;;;1.65;1.60;;;8.30;99.90;;;;;;5040626;28;20226;-76
2024/03/13 04:54:59;;;;;;;1.60;1.60;;;8.30;99.90;;;;;;5022621;28;20218;-75
2024/03/13 04:57:26;;;;;;;1.70;1.65;;;8.30;99.90;;;;;;5023693;28;20235;-77
2024/03/13 04:59:53;;;;;;;1.70;1.70;;;8.30;99.90;;;;;;5019866;28;20255;-76
2024/03/13 05:02:20;;;;;;;1.73;1.63;;;8.30;99.90;;;;;;5039242;28;20229;-76
2024/03/13 05:04:47;;;;;;;1.80;1.70;;;8.30;99.90;;;;;;5023488;28;20304;-76
2024/03/13 05:07:15;;;;;;;2.13;1.70;;;8.30;99.90;;;;;;5023466;28;20218;-76
2024/03/13 05:09:44;;;;;;;1.90;1.80;;;8.30;99.90;;;;;;5018795;28;20296;-76
2024/03/13 05:12:12;;;;;;;1.35;1.35;;;8.30;99.90;;;;;;5037571;28;20214;-76
2024/03/13 05:14:39;;;;;;;1.88;1.77;;;8.40;99.90;;;;;;5036537;28;20304;-76
2024/03/13 05:17:09;;;;;;;2.00;1.90;;;8.30;99.90;;;;;;5026064;28;20893;-76
2024/03/13 05:19:36;;;;;;;1.80;1.70;;;8.30;99.90;;;;;;5022110;28;20605;-75
2024/03/13 05:22:04;;;;;;;2.00;1.90;;;8.30;99.90;;;;;;5025642;28;20296;-76
2024/03/13 05:24:32;;;;;;;1.70;1.70;;;8.40;99.90;;;;;;5029309;28;20311;-75
2024/03/13 05:26:59;;;;;;;2.05;1.95;;;8.40;99.90;;;;;;5021892;28;20674;-75
2024/03/13 05:29:27;;;;;;;1.80;1.70;;;8.40;99.90;;;;;;5042075;28;20792;-76
2024/03/13 05:31:54;;;;;;;1.90;1.80;;;8.40;99.90;;;;;;5021025;28;20223;-77
2024/03/13 05:34:22;;;;;;;1.80;1.80;;;8.30;99.90;;;;;;5062305;28;20222;-75
2024/03/13 05:36:49;;;;;;;1.92;1.83;;;8.20;99.90;;;;;;5022440;28;20806;-76
2024/03/13 05:39:17;;;;;;;2.45;2.25;;;8.20;99.90;;;;;;5020501;28;20231;-76
2024/03/13 05:41:45;;;;;;;1.80;1.70;;;8.20;99.90;;;;;;5019980;28;20926;-76
2024/03/13 05:44:12;;;;;;;2.10;2.00;;;8.20;99.90;;;;;;5050556;28;20233;-77
2024/03/13 05:46:40;;;;;;;1.90;1.80;;;8.20;99.90;;;;;;5036775;28;20257;-77
2024/03/13 05:49:07;;;;;;;2.08;1.98;;;8.20;99.90;;;;;;5022105;28;22100;-77
2024/03/13 05:51:34;;;;;;;2.15;2.05;;;8.20;99.90;;;;;;5021322;28;20277;-75
2024/03/13 05:54:02;;;;;;;2.10;2.00;;;8.20;99.90;;;;;;5054550;28;20227;-75
2024/03/13 05:56:29;;;;;;;2.00;1.90;;;8.30;99.90;;;;;;5021358;28;20234;-75
2024/03/13 05:58:57;;;;;;;1.83;1.73;;;8.30;99.90;;;;;;5037129;28;20609;-75
2024/03/13 06:01:26;;;;;;;1.92;1.83;;;8.30;99.90;;;;;;5020874;28;20371;-75
2024/03/13 06:03:54;;;;;;;1.98;1.88;;;8.30;99.90;;;;;;5036628;28;20285;-76
2024/03/13 06:06:22;;;;;;;2.03;1.92;;;8.30;99.90;;;;;;5038376;28;20250;-75
2024/03/13 06:08:49;;;;;;;2.08;1.98;;;8.30;99.90;;;;;;5036955;28;20600;-76
2024/03/13 06:11:18;;;;;;;2.05;1.92;;;8.40;99.90;;;;;;5034822;28;20305;-76
2024/03/13 06:13:45;;;;;;;1.90;1.80;;;8.40;99.90;;;;;;5023103;28;20290;-76
2024/03/13 06:16:13;;;;;;;2.08;1.98;;;8.40;99.90;;;;;;5039892;28;20307;-76
2024/03/13 06:18:40;;;;;;;1.95;1.85;;;8.40;99.90;;;;;;5037185;28;20684;-75
2024/03/13 06:21:08;;;;;;;2.65;2.03;;;8.40;99.90;;;;;;5037629;28;20331;-75
2024/03/13 06:23:36;;;;;;;3.55;2.08;;;8.40;99.90;;;;;;5038233;28;23171;-76
2024/03/13 06:26:03;;;;;;;2.00;1.90;;;8.50;99.90;;;;;;5024058;28;20249;-76
2024/03/13 06:31:16;;;;;;;2.05;1.90;;;8.60;99.90;;;;;;5030698;28;20217;-76
2024/03/13 06:33:44;;;;;;;1.98;1.88;;;8.50;99.90;;;;;;5047503;28;20203;-75
2024/03/13 06:36:11;;;;;;;1.80;1.70;;;8.60;99.90;;;;;;5021467;28;20873;-76
2024/03/13 06:38:38;;;;;;;1.83;1.73;;;8.60;99.90;;;;;;5018428;28;20221;-74
2024/03/13 06:41:05;;;;;;;1.98;1.88;;;8.70;99.90;;;;;;5018352;28;20226;-76
2024/03/13 06:43:32;;;;;;;1.85;1.75;;;8.70;99.90;;;;;;5022401;28;20345;-75
2024/03/13 06:45:59;;;;;;;1.90;1.80;;;8.70;99.90;;;;;;5021786;28;20305;-76
2024/03/13 06:48:26;;;;;;;1.83;1.73;;;8.80;99.90;;;;;;5036153;28;20735;-75
2024/03/13 06:50:53;;;;;;;2.00;1.90;;;8.80;99.90;;;;;;5037990;28;20218;-75
2024/03/13 06:53:20;;;;;;;2.20;2.10;;;8.90;99.90;;;;;;5039840;28;20247;-76
2024/03/13 06:55:49;;;;;;;1.92;1.83;;;8.90;99.90;;;;;;5023932;28;20307;-76
2024/03/13 06:58:16;;;;;;;1.90;1.80;;;8.90;99.90;;;;;;5019785;28;21303;-75
2024/03/13 07:00:44;;;;;;;2.17;2.08;;;9.00;99.90;;;;;;5022351;28;20278;-77
2024/03/13 07:03:11;;;;;;;2.08;1.98;;;9.00;99.90;;;;;;5039095;28;20226;-76
2024/03/13 07:05:38;;;;;;;2.38;2.28;;;9.00;99.90;;;;;;5020487;28;20999;-76
2024/03/13 07:08:05;;;;;;;2.05;1.95;;;9.00;99.90;;;;;;5019573;28;20309;-75
2024/03/13 07:10:33;;;;;;;2.10;2.00;;;9.10;99.90;;;;;;5021075;28;20320;-75
2024/03/13 07:12:59;;;;;;;2.53;2.22;;;9.10;99.90;;;;;;5020772;28;20222;-76
2024/03/13 07:15:26;;;;;;;2.33;2.22;;;9.50;99.90;;;;;;5020411;28;20280;-75
2024/03/13 07:17:53;;;;;;;2.17;2.00;;;9.70;99.90;;;;;;5039279;28;20308;-75
2024/03/13 07:20:20;;;;;;;2.70;2.50;;;9.70;99.90;;;;;;5037558;28;20308;-75
2024/03/13 07:22:47;;;;;;;2.63;2.42;;;9.50;99.90;;;;;;5025005;28;20301;-75
2024/03/13 07:25:17;;;;;;;2.95;2.28;;;9.30;99.90;;;;;;5025096;28;20246;-76
2024/03/13 07:27:44;;;;;;;2.17;2.08;;;9.20;99.90;;;;;;5042625;28;20310;-75
2024/03/13 07:30:13;;;;;;;2.97;2.75;;;9.20;99.90;;;;;;5027015;28;20246;-76
2024/03/13 07:32:41;;;;;;;2.75;2.55;;;9.10;99.90;;;;;;5040671;28;20215;-75
2024/03/13 07:35:10;;;;;;;3.05;2.80;;;9.10;99.90;;;;;;5036779;28;20282;-77
2024/03/13 07:37:37;;;;;;;3.53;2.78;;;9.10;99.90;;;;;;5020899;28;20218;-77
2024/03/13 07:40:05;;;;;;;3.22;2.42;;;9.20;99.90;;;;;;5015497;28;20397;-76
2024/03/13 07:42:32;;;;;;;2.63;2.50;;;9.30;99.90;;;;;;5024365;28;20230;-75
2024/03/13 07:44:59;;;;;;;2.00;1.90;;;9.40;99.90;;;;;;5016445;28;20246;-77
2024/03/13 07:47:26;;;;;;;2.47;2.38;;;9.50;99.90;;;;;;5019522;28;20365;-76
2024/03/13 07:49:53;;;;;;;2.10;2.00;;;9.60;99.90;;;;;;5017588;28;20254;-75
2024/03/13 07:52:20;;;;;;;2.10;1.95;;;9.70;99.90;;;;;;5018987;28;20224;-75
2024/03/13 07:54:48;;;;;;;3.55;2.17;;;9.80;99.90;;;;;;5019503;28;20320;-75
2024/03/13 07:57:15;;;;;;;2.13;2.03;;;9.90;99.90;;;;;;5018396;28;20227;-76
2024/03/13 07:59:43;;;;;;;2.42;2.25;;;10.00;99.90;;;;;;5018439;28;20246;-76
2024/03/13 08:02:10;;;;;;;2.33;2.08;;;10.20;99.90;;;;;;5032279;28;20258;-74
2024/03/13 08:04:37;;;;;;;2.13;1.88;;;10.30;99.90;;;;;;5017053;28;20288;-76
2024/03/13 08:07:04;;;;;;;2.72;2.53;;;10.20;99.90;;;;;;5016698;28;20223;-76
2024/03/13 08:09:31;;;;;;;2.13;2.03;;;10.20;99.90;;;;;;5015922;28;21016;-77
2024/03/13 08:11:58;;;;;;;2.10;2.00;;;10.30;99.90;;;;;;5046672;28;20250;-75
2024/03/13 08:14:25;;;;;;;2.20;2.10;;;10.40;99.90;;;;;;5034662;28;20834;-75
2024/03/13 08:16:53;;;;;;;2.15;2.05;;;10.80;99.90;;;;;;5013787;28;20312;-76
2024/03/13 08:19:22;;;;;;;1.98;1.88;;;11.20;99.90;;;;;;5018884;28;20305;-77
2024/03/13 08:21:49;;;;;;;4.70;2.30;;;11.60;99.90;;;;;;5012515;28;20222;-75
2024/03/13 08:24:17;;;;;;;2.70;2.50;;;12.20;99.90;;;;;;5014307;28;20250;-76
2024/03/13 08:26:44;;;;;;;2.60;2.40;;;12.20;99.90;;;;;;5016305;28;20922;-74
2024/03/13 08:29:15;;;;;;;2.13;2.00;;;12.20;99.90;;;;;;5021556;28;20304;-74
2024/03/13 08:31:47;;;;;;;2.58;2.38;;;12.70;99.90;;;;;;5019006;28;20221;-74
2024/03/13 08:34:14;;;;;;;2.30;2.15;;;13.50;99.90;;;;;;5036832;28;20222;-76
2024/03/13 08:36:42;;;;;;;2.45;2.28;;;14.40;99.90;;;;;;5014891;28;20250;-77
2024/03/13 08:39:09;;;;;;;2.05;1.95;;;15.30;99.90;;;;;;5018732;28;20242;-75
2024/03/13 08:41:36;;;;;;;2.65;2.45;;;15.90;99.90;;;;;;5020068;28;20217;-76
2024/03/13 08:44:04;;;;;;;2.45;1.83;;;16.40;99.90;;;;;;5021931;28;20231;-77
2024/03/13 08:46:31;;;;;;;2.67;1.65;;;16.40;99.90;;;;;;5036686;28;20286;-78
2024/03/13 08:49:01;;;;;;;1.88;1.52;;;15.90;99.90;;;;;;5036724;28;20821;-77
2024/03/13 08:51:29;;;;;;;1.63;1.35;;;15.40;99.90;;;;;;5037431;28;20219;-76
2024/03/13 08:53:56;;;;;;;1.63;1.50;;;15.40;99.90;;;;;;5017672;28;20203;-76
2024/03/13 08:56:24;;;;;;;2.13;1.40;;;15.50;99.90;;;;;;5035023;28;20320;-77
2024/03/13 08:58:51;;;;;;;1.52;1.42;;;15.60;99.90;;;;;;5017533;28;20203;-76
2024/03/13 09:01:18;;;;;;;1.50;1.40;;;15.80;99.90;;;;;;5018436;28;21479;-78
2024/03/13 09:03:45;;;;;;;1.50;1.40;;;16.20;99.90;;;;;;5017454;28;20210;-76
2024/03/13 09:06:15;;;;;;;1.20;1.10;;;16.10;99.90;;;;;;5017091;28;20218;-77
2024/03/13 09:08:44;;;;;;;3.25;1.40;;;16.00;99.90;;;;;;5034783;28;20211;-77
2024/03/13 09:11:12;;;;;;;1.30;1.20;;;15.80;99.90;;;;;;5012646;28;20214;-77
2024/03/13 09:13:41;;;;;;;2.88;1.55;;;15.70;99.90;;;;;;5030527;28;20295;-77
2024/03/13 09:16:12;;;;;;;1.30;1.30;;;16.10;99.90;;;;;;5015066;28;20238;-77
2024/03/13 09:18:39;;;;;;;1.42;1.33;;;16.40;99.90;;;;;;5031399;28;20210;-77
2024/03/13 09:21:06;;;;;;;1.67;1.40;;;16.40;99.90;;;;;;5035132;28;20215;-75
2024/03/13 09:23:33;;;;;;;1.45;1.35;;;16.20;99.90;;;;;;5013738;28;20755;-77
2024/03/13 09:26:00;;;;;;;1.20;1.20;;;16.30;99.90;;;;;;5031435;28;20301;-76
2024/03/13 09:28:28;;;;;;;2.55;1.30;;;16.30;99.90;;;;;;5022427;28;20195;-75
2024/03/13 09:30:55;;;;;;;1.60;1.30;;;16.30;99.90;;;;;;5013191;28;21047;-77
2024/03/13 09:33:22;;;;;;;1.58;1.48;;;16.50;99.90;;;;;;5043743;28;20291;-77
2024/03/13 09:35:49;;;;;;;1.00;1.00;;;16.80;99.90;;;;;;5022532;28;20744;-76
2024/03/13 09:38:17;;;;;;;1.30;1.20;;;16.90;99.90;;;;;;5016945;28;20227;-75
2024/03/13 09:40:44;;;;;;;1.75;1.30;;;17.20;99.90;;;;;;5016761;28;20225;-77
2024/03/13 09:43:11;;;;;;;1.17;1.10;;;17.00;99.90;;;;;;5024042;28;21459;-78
2024/03/13 09:45:39;;;;;;;1.20;1.20;;;17.00;99.90;;;;;;5019438;28;20251;-77
2024/03/13 09:48:07;;;;;;;1.52;1.42;;;17.10;99.90;;;;;;5036668;28;20229;-79
2024/03/13 09:50:34;;;;;;;1.10;1.10;;;17.20;99.90;;;;;;5011372;28;20218;-78
2024/03/13 09:53:01;;;;;;;7.20;1.23;;;17.40;99.90;;;;;;5011742;28;20297;-77
2024/03/13 09:55:29;;;;;;;0.93;0.93;;;17.80;99.90;;;;;;5032081;28;20330;-76
2024/03/13 09:57:56;;;;;;;1.20;1.10;;;17.90;99.90;;;;;;5027154;28;20222;-76
2024/03/13 10:00:23;;;;;;;1.30;1.20;;;17.90;99.90;;;;;;5016609;28;20242;-78
2024/03/13 10:02:50;;;;;;;1.60;1.27;;;18.10;99.90;;;;;;5016328;28;21209;-76
2024/03/13 10:05:18;;;;;;;0.77;0.77;;;18.20;99.90;;;;;;5015685;28;20238;-78
2024/03/13 10:07:45;;;;;;;1.83;1.33;;;18.10;99.90;;;;;;5018670;28;20308;-76
2024/03/13 10:10:18;;;;;;;1.15;1.10;;;18.00;99.90;;;;;;5032555;28;20895;-77
2024/03/13 10:12:45;;;;;;;1.10;1.10;;;17.90;99.90;;;;;;5015785;28;20219;-77
2024/03/13 10:15:15;;;;;;;2.10;1.10;;;18.00;99.90;;;;;;5015514;28;21107;-77
2024/03/13 10:17:43;;;;;;;1.10;1.00;;;18.00;99.90;;;;;;5016328;28;20369;-76
2024/03/13 10:20:13;;;;;;;1.60;1.23;;;18.20;99.90;;;;;;5032078;28;20786;-78
2024/03/13 10:22:41;;;;;;;0.85;0.80;;;18.60;99.90;;;;;;5016639;28;20571;-77
2024/03/13 10:25:09;;;;;;;1.08;0.95;;;18.80;99.90;;;;;;5016162;28;20219;-75
2024/03/13 10:27:38;;;;;;;1.63;1.00;;;19.00;99.90;;;;;;5021726;28;20210;-77
2024/03/13 10:30:07;;;;;;;1.10;1.10;;;19.00;99.90;;;;;;5046294;28;20236;-76
2024/03/13 10:32:36;;;;;;;1.25;1.05;;;19.10;99.90;;;;;;5018151;28;20571;-75
2024/03/13 10:35:03;;;;;;;1.20;1.10;;;19.00;99.90;;;;;;5021037;28;20276;-76
2024/03/13 10:37:30;;;;;;;1.58;0.90;;;19.00;99.90;;;;;;5016257;28;20215;-77
2024/03/13 10:39:58;;;;;;;1.00;1.00;;;19.10;99.90;;;;;;5016913;28;20307;-77
2024/03/13 10:42:25;;;;;;;1.17;1.10;;;19.30;99.90;;;;;;5032670;28;20300;-76
2024/03/13 10:44:54;;;;;;;0.95;0.95;;;19.50;99.90;;;;;;5031370;28;20258;-76
2024/03/13 10:47:21;;;;;;;1.15;1.10;;;19.40;99.90;;;;;;5031985;28;20223;-78
2024/03/13 10:49:48;;;;;;;2.22;1.10;;;19.20;99.90;;;;;;5048770;28;20246;-76
2024/03/13 10:52:19;;;;;;;2.08;1.10;;;19.00;99.90;;;;;;5016176;28;20211;-76
2024/03/13 10:54:46;;;;;;;1.73;1.20;;;18.90;99.90;;;;;;5019862;28;20311;-75
2024/03/13 10:57:17;;;;;;;0.90;0.90;;;18.70;99.90;;;;;;5013922;28;20246;-75
2024/03/13 10:59:44;;;;;;;1.17;1.08;;;18.80;99.90;;;;;;5018776;28;20229;-75
2024/03/13 11:02:11;;;;;;;0.90;0.90;;;19.10;99.90;;;;;;5037245;28;20272;-77
2024/03/13 11:04:39;;;;;;;1.38;1.27;;;19.20;99.90;;;;;;5037667;28;20254;-76
2024/03/13 11:07:06;;;;;;;0.95;0.77;;;19.10;99.90;;;;;;5020186;28;20223;-77
2024/03/13 11:09:33;;;;;;;1.08;1.08;;;19.10;99.90;;;;;;5022625;28;20214;-77
2024/03/13 11:12:00;;;;;;;1.02;0.90;;;19.00;99.90;;;;;;5018018;28;20226;-76
2024/03/13 11:14:27;;;;;;;1.33;1.10;;;19.00;99.90;;;;;;5017611;28;20268;-78
2024/03/13 11:16:56;;;;;;;1.80;1.33;;;19.30;99.90;;;;;;5021199;28;20231;-75
2024/03/13 11:19:23;;;;;;;0.90;0.90;;;19.20;99.90;;;;;;5021587;28;20234;-75
2024/03/13 11:21:50;;;;;;;2.33;1.13;;;19.00;99.90;;;;;;5024712;28;20287;-76
2024/03/13 11:24:18;;;;;;;0.90;0.90;;;19.00;99.90;;;;;;5026437;28;20231;-76
2024/03/13 11:26:46;;;;;;;2.30;1.33;;;18.90;99.90;;;;;;5024439;28;20222;-77
2024/03/13 11:29:13;;;;;;;1.10;0.90;;;18.80;99.90;;;;;;5019606;28;20214;-77
2024/03/13 11:31:41;;;;;;;0.82;0.82;;;18.60;99.90;;;;;;5023202;28;20258;-76
2024/03/13 11:34:09;;;;;;;1.10;1.00;;;18.60;99.90;;;;;;5022964;28;20202;-76
2024/03/13 11:36:36;;;;;;;0.98;0.98;;;18.70;99.90;;;;;;5021972;28;20799;-76
2024/03/13 11:39:03;;;;;;;1.75;1.10;;;18.90;99.90;;;;;;5042415;28;20322;-78
2024/03/13 11:41:31;;;;;;;2.25;0.95;;;19.10;99.90;;;;;;5021190;28;20254;-77
2024/03/13 11:43:59;;;;;;;1.20;1.02;;;19.00;99.90;;;;;;5019343;28;20757;-77
2024/03/13 11:46:33;;;;;;;1.17;0.98;;;19.00;99.90;;;;;;5050893;28;20724;-76
2024/03/13 11:49:02;;;;;;;1.00;1.00;;;19.10;99.90;;;;;;5020475;28;20276;-76
2024/03/13 11:51:31;;;;;;;1.00;1.00;;;19.30;99.90;;;;;;5031978;28;20229;-77
2024/03/13 11:54:07;;;;;;;0.93;0.93;;;19.30;99.90;;;;;;5019640;28;20825;-76
2024/03/13 11:56:34;;;;;;;0.80;0.80;;;19.20;99.90;;;;;;5035090;28;20223;-77
2024/03/13 11:59:01;;;;;;;0.95;0.90;;;19.10;99.90;;;;;;5020903;28;20550;-76
2024/03/13 12:01:30;;;;;;;3.33;1.27;;;19.00;99.90;;;;;;5040547;28;20222;-76
2024/03/13 12:03:57;;;;;;;2.63;1.10;;;19.20;99.90;;;;;;5019876;28;20206;-76
2024/03/13 12:06:36;;;;;;;2.88;1.10;;;19.20;99.90;;;;;;5018988;28;20335;-77
2024/03/13 12:09:09;;;;;;;1.00;1.00;;;19.20;99.90;;;;;;5021926;28;20297;-76
2024/03/13 12:11:37;;;;;;;0.95;0.95;;;19.30;99.90;;;;;;5021096;28;20222;-76
2024/03/13 12:14:05;;;;;;;1.70;0.95;;;19.30;99.90;;;;;;5026736;28;20199;-77
2024/03/13 12:16:32;;;;;;;2.42;1.00;;;19.40;99.90;;;;;;5020907;28;20222;-75
2024/03/13 12:18:59;;;;;;;0.90;0.90;;;19.60;99.90;;;;;;5019670;28;20234;-76
2024/03/13 12:21:26;;;;;;;3.42;0.90;;;19.40;99.90;;;;;;5016459;28;20223;-76
2024/03/13 12:23:53;;;;;;;1.08;1.00;;;19.30;99.90;;;;;;5020414;28;20206;-76
2024/03/13 12:26:20;;;;;;;1.05;1.05;;;19.30;99.90;;;;;;5012650;28;20238;-76
2024/03/13 12:28:49;;;;;;;0.90;0.90;;;19.40;99.90;;;;;;5018173;28;20689;-76
2024/03/13 12:31:16;;;;;;;0.93;0.90;;;19.60;99.90;;;;;;5038361;28;20222;-78
2024/03/13 12:33:43;;;;;;;1.38;1.05;;;19.60;99.90;;;;;;5039459;28;20250;-76
2024/03/13 12:36:10;;;;;;;1.50;0.80;;;19.50;99.90;;;;;;5013654;28;20236;-78
2024/03/13 12:38:37;;;;;;;0.80;0.80;;;19.40;99.90;;;;;;5017508;28;20227;-77
2024/03/13 12:41:05;;;;;;;1.33;1.00;;;19.40;99.90;;;;;;5022537;28;20242;-78
2024/03/13 12:43:32;;;;;;;0.77;0.77;;;19.60;99.90;;;;;;5025602;28;20203;-77
2024/03/13 12:46:02;;;;;;;1.02;0.90;;;19.60;99.60;;;;;;5036813;28;20313;-76
2024/03/13 12:48:30;;;;;;;0.73;0.73;;;19.60;99.90;;;;;;5036488;28;20290;-77
2024/03/13 12:50:57;;;;;;;2.10;0.98;;;19.80;99.90;;;;;;5017451;28;20230;-77
2024/03/13 12:53:26;;;;;;;0.80;0.80;;;19.90;99.90;;;;;;5040079;28;20218;-76
2024/03/13 12:55:54;;;;;;;1.42;0.90;;;19.70;98.20;;;;;;5043297;28;20316;-76
2024/03/13 12:58:22;;;;;;;0.80;0.80;;;19.50;99.50;;;;;;5013646;28;20304;-76
2024/03/13 13:00:49;;;;;;;0.68;0.68;;;19.50;99.90;;;;;;5039412;28;20231;-76
2024/03/13 13:03:16;;;;;;;0.73;0.60;;;19.50;98.40;;;;;;5014757;28;21836;-76
2024/03/13 13:05:43;;;;;;;0.85;0.70;;;19.50;99.00;;;;;;5015800;28;20988;-74
2024/03/13 13:08:10;;;;;;;0.75;0.75;;;19.50;99.30;;;;;;5029767;28;20277;-75
2024/03/13 13:10:37;;;;;;;0.70;0.70;;;19.80;98.70;;;;;;5034243;28;20222;-74
2024/03/13 13:13:04;;;;;;;0.80;0.80;;;20.00;97.40;;;;;;5018228;28;20226;-75
2024/03/13 13:15:31;;;;;;;0.85;0.70;;;19.90;98.00;;;;;;5017121;28;20231;-77